sensor_id;sensor_type;location;lat;lon;timestamp;temperature;humidity
62809;DHT22;48848;39.002;-94.584;2023-02-01T00:01:35;20.70;24.30
62809;DHT22;48848;39.002;-94.584;2023-02-01T00:04:01;20.90;24.00
62809;DHT22;48848;39.002;-94.584;2023-02-01T00:06:27;21.20;23.80
62809;DHT22;48848;39.002;-94.584;2023-02-01T00:08:53;21.60;23.70
62809;DHT22;48848;39.002;-94.584;2023-02-01T00:11:20;21.20;23.40
62809;DHT22;48848;39.002;-94.584;2023-02-01T00:13:46;20.10;23.10
62809;DHT22;48848;39.002;-94.584;2023-02-01T00:16:13;19.10;24.00
62809;DHT22;48848;39.002;-94.584;2023-02-01T00:18:41;18.40;24.70
62809;DHT22;48848;39.002;-94.584;2023-02-01T00:21:08;17.90;25.60
62809;DHT22;48848;39.002;-94.584;2023-02-01T00:23:35;17.50;26.10
62809;DHT22;48848;39.002;-94.584;2023-02-01T00:26:05;17.50;26.70
62809;DHT22;48848;39.002;-94.584;2023-02-01T00:28:31;17.90;26.40
62809;DHT22;48848;39.002;-94.584;2023-02-01T00:30:58;18.30;26.00
62809;DHT22;48848;39.002;-94.584;2023-02-01T00:33:24;19.10;25.80
62809;DHT22;48848;39.002;-94.584;2023-02-01T00:35:50;19.80;25.40
62809;DHT22;48848;39.002;-94.584;2023-02-01T00:38:15;20.50;24.90
62809;DHT22;48848;39.002;-94.584;2023-02-01T00:40:41;20.70;24.60
62809;DHT22;48848;39.002;-94.584;2023-02-01T00:43:07;20.80;24.10
62809;DHT22;48848;39.002;-94.584;2023-02-01T00:45:33;19.80;23.70
62809;DHT22;48848;39.002;-94.584;2023-02-01T00:47:59;18.90;24.90
62809;DHT22;48848;39.002;-94.584;2023-02-01T00:50:25;18.40;25.50
62809;DHT22;48848;39.002;-94.584;2023-02-01T00:52:51;17.90;26.30
62809;DHT22;48848;39.002;-94.584;2023-02-01T00:55:16;17.70;27.10
62809;DHT22;48848;39.002;-94.584;2023-02-01T00:57:42;17.40;27.70
62809;DHT22;48848;39.002;-94.584;2023-02-01T01:00:08;17.60;27.80
62809;DHT22;48848;39.002;-94.584;2023-02-01T01:02:34;18.10;27.40
62809;DHT22;48848;39.002;-94.584;2023-02-01T01:05:00;18.60;27.00
62809;DHT22;48848;39.002;-94.584;2023-02-01T01:07:27;19.30;26.40
62809;DHT22;48848;39.002;-94.584;2023-02-01T01:09:52;19.30;25.50
62809;DHT22;48848;39.002;-94.584;2023-02-01T01:12:18;18.80;26.10
62809;DHT22;48848;39.002;-94.584;2023-02-01T01:14:45;18.20;26.50
62809;DHT22;48848;39.002;-94.584;2023-02-01T01:17:11;17.80;27.20
62809;DHT22;48848;39.002;-94.584;2023-02-01T01:19:37;17.50;27.80
62809;DHT22;48848;39.002;-94.584;2023-02-01T01:22:02;17.40;28.20
62809;DHT22;48848;39.002;-94.584;2023-02-01T01:24:28;18.10;28.10
62809;DHT22;48848;39.002;-94.584;2023-02-01T01:26:54;19.50;27.30
62809;DHT22;48848;39.002;-94.584;2023-02-01T01:29:20;20.30;26.40
62809;DHT22;48848;39.002;-94.584;2023-02-01T01:31:46;21.00;25.70
62809;DHT22;48848;39.002;-94.584;2023-02-01T01:34:12;20.90;24.80
62809;DHT22;48848;39.002;-94.584;2023-02-01T01:36:38;19.60;25.50
62809;DHT22;48848;39.002;-94.584;2023-02-01T01:39:04;18.70;26.40
62809;DHT22;48848;39.002;-94.584;2023-02-01T01:41:31;18.10;26.70
62809;DHT22;48848;39.002;-94.584;2023-02-01T01:44:53;17.70;26.90
62809;DHT22;48848;39.002;-94.584;2023-02-01T01:46:52;17.50;27.50
62809;DHT22;48848;39.002;-94.584;2023-02-01T01:49:19;17.10;28.00
62809;DHT22;48848;39.002;-94.584;2023-02-01T01:51:47;16.90;28.40
62809;DHT22;48848;39.002;-94.584;2023-02-01T01:54:31;17.30;28.60
62809;DHT22;48848;39.002;-94.584;2023-02-01T01:57:00;18.10;27.90
62809;DHT22;48848;39.002;-94.584;2023-02-01T01:59:27;19.60;26.70
62809;DHT22;48848;39.002;-94.584;2023-02-01T02:01:54;20.60;25.60
62809;DHT22;48848;39.002;-94.584;2023-02-01T02:04:20;21.10;25.00
62809;DHT22;48848;39.002;-94.584;2023-02-01T02:06:51;21.30;24.30
62809;DHT22;48848;39.002;-94.584;2023-02-01T02:09:20;19.70;24.50
62809;DHT22;48848;39.002;-94.584;2023-02-01T02:11:46;18.60;25.50
62809;DHT22;48848;39.002;-94.584;2023-02-01T02:14:13;17.90;26.90
62809;DHT22;48848;39.002;-94.584;2023-02-01T02:24:21;18.00;28.00
62809;DHT22;48848;39.002;-94.584;2023-02-01T02:26:53;18.80;26.90
62809;DHT22;48848;39.002;-94.584;2023-02-01T02:34:38;21.50;24.60
62809;DHT22;48848;39.002;-94.584;2023-02-01T02:39:37;19.30;25.10
62809;DHT22;48848;39.002;-94.584;2023-02-01T02:45:44;17.50;27.80
62809;DHT22;48848;39.002;-94.584;2023-02-01T02:48:30;16.90;28.20
62809;DHT22;48848;39.002;-94.584;2023-02-01T02:51:16;16.70;28.40
62809;DHT22;48848;39.002;-94.584;2023-02-01T02:54:11;17.20;28.00
62809;DHT22;48848;39.002;-94.584;2023-02-01T02:56:57;17.80;27.20
62809;DHT22;48848;39.002;-94.584;2023-02-01T02:59:43;18.20;26.90
62809;DHT22;48848;39.002;-94.584;2023-02-01T03:02:28;18.50;26.60
62809;DHT22;48848;39.002;-94.584;2023-02-01T03:05:13;18.70;26.30
62809;DHT22;48848;39.002;-94.584;2023-02-01T03:10:08;17.60;26.90
62809;DHT22;48848;39.002;-94.584;2023-02-01T03:12:36;17.10;28.20
62809;DHT22;48848;39.002;-94.584;2023-02-01T03:15:42;16.70;28.40
62809;DHT22;48848;39.002;-94.584;2023-02-01T03:18:14;16.30;28.90
62809;DHT22;48848;39.002;-94.584;2023-02-01T03:20:43;16.30;29.00
62809;DHT22;48848;39.002;-94.584;2023-02-01T03:23:10;16.60;28.50
62809;DHT22;48848;39.002;-94.584;2023-02-01T03:25:38;17.40;27.90
62809;DHT22;48848;39.002;-94.584;2023-02-01T03:28:04;17.90;27.30
62809;DHT22;48848;39.002;-94.584;2023-02-01T03:30:34;18.30;26.60
62809;DHT22;48848;39.002;-94.584;2023-02-01T03:33:02;18.50;26.30
62809;DHT22;48848;39.002;-94.584;2023-02-01T03:40:42;17.10;28.10
62809;DHT22;48848;39.002;-94.584;2023-02-01T03:43:11;16.70;28.50
62809;DHT22;48848;39.002;-94.584;2023-02-01T03:45:41;16.30;28.90
62809;DHT22;48848;39.002;-94.584;2023-02-01T03:48:09;16.00;29.10
62809;DHT22;48848;39.002;-94.584;2023-02-01T03:50:36;16.20;29.10
62809;DHT22;48848;39.002;-94.584;2023-02-01T03:53:08;16.20;28.90
62809;DHT22;48848;39.002;-94.584;2023-02-01T03:55:34;16.00;29.40
62809;DHT22;48848;39.002;-94.584;2023-02-01T03:58:04;15.70;29.80
62809;DHT22;48848;39.002;-94.584;2023-02-01T04:00:31;15.50;30.10
62809;DHT22;48848;39.002;-94.584;2023-02-01T04:02:57;15.20;30.30
62809;DHT22;48848;39.002;-94.584;2023-02-01T04:05:24;15.10;30.60
62809;DHT22;48848;39.002;-94.584;2023-02-01T04:07:49;14.90;30.90
62809;DHT22;48848;39.002;-94.584;2023-02-01T04:10:16;14.70;30.90
62809;DHT22;48848;39.002;-94.584;2023-02-01T04:12:42;14.70;31.30
62809;DHT22;48848;39.002;-94.584;2023-02-01T04:15:08;14.60;31.40
62809;DHT22;48848;39.002;-94.584;2023-02-01T04:17:34;14.40;31.40
62809;DHT22;48848;39.002;-94.584;2023-02-01T04:20:00;14.40;31.50
62809;DHT22;48848;39.002;-94.584;2023-02-01T04:22:26;14.30;31.70
62809;DHT22;48848;39.002;-94.584;2023-02-01T04:24:51;14.20;31.80
62809;DHT22;48848;39.002;-94.584;2023-02-01T04:27:17;14.10;31.90
62809;DHT22;48848;39.002;-94.584;2023-02-01T04:29:43;14.00;32.10
62809;DHT22;48848;39.002;-94.584;2023-02-01T04:32:10;13.90;32.20
62809;DHT22;48848;39.002;-94.584;2023-02-01T04:34:36;13.80;32.40
62809;DHT22;48848;39.002;-94.584;2023-02-01T04:37:02;13.80;32.50
62809;DHT22;48848;39.002;-94.584;2023-02-01T04:39:28;13.70;32.50
62809;DHT22;48848;39.002;-94.584;2023-02-01T04:41:54;13.60;32.70
62809;DHT22;48848;39.002;-94.584;2023-02-01T04:44:20;13.60;32.60
62809;DHT22;48848;39.002;-94.584;2023-02-01T04:46:46;13.50;32.70
62809;DHT22;48848;39.002;-94.584;2023-02-01T04:49:12;13.40;32.60
62809;DHT22;48848;39.002;-94.584;2023-02-01T04:51:39;13.30;32.70
62809;DHT22;48848;39.002;-94.584;2023-02-01T04:54:05;13.20;32.80
62809;DHT22;48848;39.002;-94.584;2023-02-01T04:56:31;13.20;33.00
62809;DHT22;48848;39.002;-94.584;2023-02-01T04:58:57;13.10;33.10
62809;DHT22;48848;39.002;-94.584;2023-02-01T05:01:23;13.00;33.30
62809;DHT22;48848;39.002;-94.584;2023-02-01T05:03:52;13.00;33.30
62809;DHT22;48848;39.002;-94.584;2023-02-01T05:06:17;13.00;33.50
62809;DHT22;48848;39.002;-94.584;2023-02-01T05:08:43;12.80;33.50
62809;DHT22;48848;39.002;-94.584;2023-02-01T05:11:09;12.80;33.50
62809;DHT22;48848;39.002;-94.584;2023-02-01T05:13:55;12.70;33.40
62809;DHT22;48848;39.002;-94.584;2023-02-01T05:16:21;12.70;33.50
62809;DHT22;48848;39.002;-94.584;2023-02-01T05:18:47;12.60;33.60
62809;DHT22;48848;39.002;-94.584;2023-02-01T05:21:12;12.60;33.70
62809;DHT22;48848;39.002;-94.584;2023-02-01T05:23:38;12.50;33.80
62809;DHT22;48848;39.002;-94.584;2023-02-01T05:26:23;12.40;33.80
62809;DHT22;48848;39.002;-94.584;2023-02-01T05:28:49;12.40;33.90
62809;DHT22;48848;39.002;-94.584;2023-02-01T05:31:15;12.30;34.00
62809;DHT22;48848;39.002;-94.584;2023-02-01T05:33:41;12.20;34.00
62809;DHT22;48848;39.002;-94.584;2023-02-01T05:36:07;12.20;34.10
62809;DHT22;48848;39.002;-94.584;2023-02-01T05:38:32;12.10;34.10
62809;DHT22;48848;39.002;-94.584;2023-02-01T05:40:58;12.10;34.10
62809;DHT22;48848;39.002;-94.584;2023-02-01T05:43:24;12.00;34.20
62809;DHT22;48848;39.002;-94.584;2023-02-01T05:45:53;12.00;34.30
62809;DHT22;48848;39.002;-94.584;2023-02-01T05:48:19;11.90;34.20
62809;DHT22;48848;39.002;-94.584;2023-02-01T05:50:45;11.90;34.20
62809;DHT22;48848;39.002;-94.584;2023-02-01T05:53:11;11.80;34.50
62809;DHT22;48848;39.002;-94.584;2023-02-01T05:55:37;11.80;34.60
62809;DHT22;48848;39.002;-94.584;2023-02-01T05:58:03;12.10;33.70
62809;DHT22;48848;39.002;-94.584;2023-02-01T06:00:29;12.70;32.10
62809;DHT22;48848;39.002;-94.584;2023-02-01T06:02:55;13.30;30.80
62809;DHT22;48848;39.002;-94.584;2023-02-01T06:05:21;13.80;29.90
62809;DHT22;48848;39.002;-94.584;2023-02-01T06:07:46;13.70;30.00
62809;DHT22;48848;39.002;-94.584;2023-02-01T06:10:12;13.30;30.70
62809;DHT22;48848;39.002;-94.584;2023-02-01T06:12:38;12.90;31.60
62809;DHT22;48848;39.002;-94.584;2023-02-01T06:15:04;12.50;32.20
62809;DHT22;48848;39.002;-94.584;2023-02-01T06:17:30;12.30;32.70
62809;DHT22;48848;39.002;-94.584;2023-02-01T06:19:56;12.10;33.10
62809;DHT22;48848;39.002;-94.584;2023-02-01T06:22:22;12.00;33.50
62809;DHT22;48848;39.002;-94.584;2023-02-01T06:24:48;11.90;33.70
62809;DHT22;48848;39.002;-94.584;2023-02-01T06:27:14;11.80;33.70
62809;DHT22;48848;39.002;-94.584;2023-02-01T06:29:40;11.80;33.70
62809;DHT22;48848;39.002;-94.584;2023-02-01T06:32:06;12.30;32.60
62809;DHT22;48848;39.002;-94.584;2023-02-01T06:34:32;13.00;31.20
62809;DHT22;48848;39.002;-94.584;2023-02-01T06:36:58;13.50;30.00
62809;DHT22;48848;39.002;-94.584;2023-02-01T06:39:24;13.90;29.60
62809;DHT22;48848;39.002;-94.584;2023-02-01T06:41:50;13.70;29.60
62809;DHT22;48848;39.002;-94.584;2023-02-01T06:44:16;13.30;30.60
62809;DHT22;48848;39.002;-94.584;2023-02-01T06:46:42;12.80;31.50
62809;DHT22;48848;39.002;-94.584;2023-02-01T06:49:08;12.50;32.20
62809;DHT22;48848;39.002;-94.584;2023-02-01T06:51:34;12.20;32.70
62809;DHT22;48848;39.002;-94.584;2023-02-01T06:54:00;12.00;33.00
62809;DHT22;48848;39.002;-94.584;2023-02-01T06:56:26;11.90;33.50
62809;DHT22;48848;39.002;-94.584;2023-02-01T06:58:52;11.80;33.60
62809;DHT22;48848;39.002;-94.584;2023-02-01T07:01:18;11.70;34.00
62809;DHT22;48848;39.002;-94.584;2023-02-01T07:03:50;12.00;33.10
62809;DHT22;48848;39.002;-94.584;2023-02-01T07:06:16;12.70;31.80
62809;DHT22;48848;39.002;-94.584;2023-02-01T07:08:43;13.30;30.60
62809;DHT22;48848;39.002;-94.584;2023-02-01T07:11:10;13.70;29.90
62809;DHT22;48848;39.002;-94.584;2023-02-01T07:13:36;13.80;29.80
62809;DHT22;48848;39.002;-94.584;2023-02-01T07:16:03;13.40;30.20
62809;DHT22;48848;39.002;-94.584;2023-02-01T07:18:30;13.00;31.40
62809;DHT22;48848;39.002;-94.584;2023-02-01T07:20:56;12.50;32.10
62809;DHT22;48848;39.002;-94.584;2023-02-01T07:23:22;12.20;32.70
62809;DHT22;48848;39.002;-94.584;2023-02-01T07:25:48;12.00;33.10
62809;DHT22;48848;39.002;-94.584;2023-02-01T07:28:14;11.90;33.50
62809;DHT22;48848;39.002;-94.584;2023-02-01T07:30:40;11.70;33.50
62809;DHT22;48848;39.002;-94.584;2023-02-01T07:33:07;11.80;33.50
62809;DHT22;48848;39.002;-94.584;2023-02-01T07:35:32;12.30;32.40
62809;DHT22;48848;39.002;-94.584;2023-02-01T07:37:58;12.90;31.20
62809;DHT22;48848;39.002;-94.584;2023-02-01T07:40:24;13.40;30.10
62809;DHT22;48848;39.002;-94.584;2023-02-01T07:42:54;13.80;29.70
62809;DHT22;48848;39.002;-94.584;2023-02-01T07:45:21;13.70;29.80
62809;DHT22;48848;39.002;-94.584;2023-02-01T07:47:47;13.30;30.50
62809;DHT22;48848;39.002;-94.584;2023-02-01T07:50:13;12.80;31.60
62809;DHT22;48848;39.002;-94.584;2023-02-01T07:52:39;12.40;32.10
62809;DHT22;48848;39.002;-94.584;2023-02-01T07:55:06;12.10;32.80
62809;DHT22;48848;39.002;-94.584;2023-02-01T07:57:32;11.90;33.30
62809;DHT22;48848;39.002;-94.584;2023-02-01T07:59:58;11.70;33.40
62809;DHT22;48848;39.002;-94.584;2023-02-01T08:02:42;11.80;33.60
62809;DHT22;48848;39.002;-94.584;2023-02-01T08:05:08;12.30;32.30
62809;DHT22;48848;39.002;-94.584;2023-02-01T08:07:34;12.90;31.00
62809;DHT22;48848;39.002;-94.584;2023-02-01T08:10:00;13.40;30.20
62809;DHT22;48848;39.002;-94.584;2023-02-01T08:12:26;13.80;29.70
62809;DHT22;48848;39.002;-94.584;2023-02-01T08:14:52;13.60;29.80
62809;DHT22;48848;39.002;-94.584;2023-02-01T08:17:19;13.20;30.70
62809;DHT22;48848;39.002;-94.584;2023-02-01T08:19:45;12.80;31.60
62809;DHT22;48848;39.002;-94.584;2023-02-01T08:22:11;12.40;32.20
62809;DHT22;48848;39.002;-94.584;2023-02-01T08:24:37;12.10;32.80
62809;DHT22;48848;39.002;-94.584;2023-02-01T08:27:05;11.90;33.20
62809;DHT22;48848;39.002;-94.584;2023-02-01T08:29:31;11.70;33.50
62809;DHT22;48848;39.002;-94.584;2023-02-01T08:31:58;11.70;33.50
62809;DHT22;48848;39.002;-94.584;2023-02-01T08:34:23;12.20;32.50
62809;DHT22;48848;39.002;-94.584;2023-02-01T08:36:49;12.90;31.10
62809;DHT22;48848;39.002;-94.584;2023-02-01T08:39:17;13.40;30.10
62809;DHT22;48848;39.002;-94.584;2023-02-01T08:41:43;13.70;29.70
62809;DHT22;48848;39.002;-94.584;2023-02-01T08:44:28;13.60;29.60
62809;DHT22;48848;39.002;-94.584;2023-02-01T08:46:54;13.20;30.60
62809;DHT22;48848;39.002;-94.584;2023-02-01T08:49:20;12.70;31.70
62809;DHT22;48848;39.002;-94.584;2023-02-01T08:51:46;12.30;32.30
62809;DHT22;48848;39.002;-94.584;2023-02-01T08:54:12;12.00;32.90
62809;DHT22;48848;39.002;-94.584;2023-02-01T08:56:37;11.80;33.40
62809;DHT22;48848;39.002;-94.584;2023-02-01T08:59:03;11.70;33.50
62809;DHT22;48848;39.002;-94.584;2023-02-01T09:01:29;11.70;33.40
62809;DHT22;48848;39.002;-94.584;2023-02-01T09:03:55;12.30;32.10
62809;DHT22;48848;39.002;-94.584;2023-02-01T09:06:21;12.80;31.00
62809;DHT22;48848;39.002;-94.584;2023-02-01T09:08:47;13.40;30.00
62809;DHT22;48848;39.002;-94.584;2023-02-01T09:11:14;13.70;29.60
62809;DHT22;48848;39.002;-94.584;2023-02-01T09:13:40;13.60;29.50
62809;DHT22;48848;39.002;-94.584;2023-02-01T09:16:07;13.10;30.20
62809;DHT22;48848;39.002;-94.584;2023-02-01T09:18:33;12.70;31.40
62809;DHT22;48848;39.002;-94.584;2023-02-01T09:20:58;12.30;32.30
62809;DHT22;48848;39.002;-94.584;2023-02-01T09:23:24;12.00;32.80
62809;DHT22;48848;39.002;-94.584;2023-02-01T09:25:50;11.80;33.20
62809;DHT22;48848;39.002;-94.584;2023-02-01T09:28:17;11.60;33.50
62809;DHT22;48848;39.002;-94.584;2023-02-01T09:30:43;11.70;33.40
62809;DHT22;48848;39.002;-94.584;2023-02-01T09:33:09;12.20;32.00
62809;DHT22;48848;39.002;-94.584;2023-02-01T09:35:35;12.80;30.80
62809;DHT22;48848;39.002;-94.584;2023-02-01T09:38:00;13.30;30.00
62809;DHT22;48848;39.002;-94.584;2023-02-01T09:40:26;13.60;29.60
62809;DHT22;48848;39.002;-94.584;2023-02-01T09:42:57;13.40;29.70
62809;DHT22;48848;39.002;-94.584;2023-02-01T09:45:36;12.90;30.90
62809;DHT22;48848;39.002;-94.584;2023-02-01T09:48:14;12.50;31.80
62809;DHT22;48848;39.002;-94.584;2023-02-01T09:50:43;12.00;32.50
62809;DHT22;48848;39.002;-94.584;2023-02-01T09:53:18;11.80;33.10
62809;DHT22;48848;39.002;-94.584;2023-02-01T09:55:50;11.60;33.50
62809;DHT22;48848;39.002;-94.584;2023-02-01T09:58:22;11.50;33.40
62809;DHT22;48848;39.002;-94.584;2023-02-01T10:00:51;12.00;32.40
62809;DHT22;48848;39.002;-94.584;2023-02-01T10:03:18;12.60;31.40
62809;DHT22;48848;39.002;-94.584;2023-02-01T10:11:21;13.50;29.70
62809;DHT22;48848;39.002;-94.584;2023-02-01T10:13:45;13.00;30.40
62809;DHT22;48848;39.002;-94.584;2023-02-01T10:18:57;12.10;32.60
62809;DHT22;48848;39.002;-94.584;2023-02-01T10:24:08;11.50;33.50
62809;DHT22;48848;39.002;-94.584;2023-02-01T10:26:37;11.40;33.40
62809;DHT22;48848;39.002;-94.584;2023-02-01T10:29:14;11.90;32.70
62809;DHT22;48848;39.002;-94.584;2023-02-01T10:31:41;12.50;31.30
62809;DHT22;48848;39.002;-94.584;2023-02-01T10:34:15;13.10;30.30
62809;DHT22;48848;39.002;-94.584;2023-02-01T10:36:50;13.50;29.90
62809;DHT22;48848;39.002;-94.584;2023-02-01T10:39:18;13.60;29.70
62809;DHT22;48848;39.002;-94.584;2023-02-01T10:41:44;13.10;30.30
62809;DHT22;48848;39.002;-94.584;2023-02-01T10:44:11;12.60;31.30
62809;DHT22;48848;39.002;-94.584;2023-02-01T10:46:39;12.20;32.30
62809;DHT22;48848;39.002;-94.584;2023-02-01T10:49:10;11.90;32.90
62809;DHT22;48848;39.002;-94.584;2023-02-01T10:51:42;11.70;33.40
62809;DHT22;48848;39.002;-94.584;2023-02-01T10:54:17;11.50;33.50
62809;DHT22;48848;39.002;-94.584;2023-02-01T10:56:46;11.80;32.70
62809;DHT22;48848;39.002;-94.584;2023-02-01T10:59:16;12.50;31.40
62809;DHT22;48848;39.002;-94.584;2023-02-01T11:01:43;13.10;30.40
62809;DHT22;48848;39.002;-94.584;2023-02-01T11:04:17;13.60;29.80
62809;DHT22;48848;39.002;-94.584;2023-02-01T11:06:46;13.60;29.60
62809;DHT22;48848;39.002;-94.584;2023-02-01T11:14:15;12.20;32.20
62809;DHT22;48848;39.002;-94.584;2023-02-01T11:16:41;11.90;32.90
62809;DHT22;48848;39.002;-94.584;2023-02-01T11:19:13;11.70;33.40
62809;DHT22;48848;39.002;-94.584;2023-02-01T11:21:39;11.50;33.30
62809;DHT22;48848;39.002;-94.584;2023-02-01T11:24:11;12.00;32.50
62809;DHT22;48848;39.002;-94.584;2023-02-01T11:26:43;12.60;31.20
62809;DHT22;48848;39.002;-94.584;2023-02-01T11:29:11;13.10;30.30
62809;DHT22;48848;39.002;-94.584;2023-02-01T11:31:38;13.50;29.70
62809;DHT22;48848;39.002;-94.584;2023-02-01T11:34:24;13.60;29.60
62809;DHT22;48848;39.002;-94.584;2023-02-01T11:36:51;13.20;30.00
62809;DHT22;48848;39.002;-94.584;2023-02-01T11:39:21;13.20;30.20
62809;DHT22;48848;39.002;-94.584;2023-02-01T11:47:16;14.30;29.10
62809;DHT22;48848;39.002;-94.584;2023-02-01T11:49:43;14.50;28.80
62809;DHT22;48848;39.002;-94.584;2023-02-01T11:52:12;14.70;28.60
62809;DHT22;48848;39.002;-94.584;2023-02-01T12:00:02;15.20;28.30
62809;DHT22;48848;39.002;-94.584;2023-02-01T12:05:02;15.50;28.10
62809;DHT22;48848;39.002;-94.584;2023-02-01T12:12:51;15.90;27.90
62809;DHT22;48848;39.002;-94.584;2023-02-01T12:18:08;16.20;27.60
62809;DHT22;48848;39.002;-94.584;2023-02-01T12:33:46;13.90;30.10
62809;DHT22;48848;39.002;-94.584;2023-02-01T12:36:19;14.40;29.50
62809;DHT22;48848;39.002;-94.584;2023-02-01T12:46:35;15.60;28.10
62809;DHT22;48848;39.002;-94.584;2023-02-01T12:49:10;15.60;27.90
62809;DHT22;48848;39.002;-94.584;2023-02-01T12:51:38;15.00;28.70
62809;DHT22;48848;39.002;-94.584;2023-02-01T12:54:17;14.50;29.60
62809;DHT22;48848;39.002;-94.584;2023-02-01T12:56:46;13.90;30.00
62809;DHT22;48848;39.002;-94.584;2023-02-01T12:59:16;13.60;30.80
62809;DHT22;48848;39.002;-94.584;2023-02-01T13:01:48;13.60;30.80
62809;DHT22;48848;39.002;-94.584;2023-02-01T13:04:19;14.00;30.10
62809;DHT22;48848;39.002;-94.584;2023-02-01T13:09:37;14.80;29.10
62809;DHT22;48848;39.002;-94.584;2023-02-01T13:12:07;15.10;28.50
62809;DHT22;48848;39.002;-94.584;2023-02-01T13:14:40;15.40;28.30
62809;DHT22;48848;39.002;-94.584;2023-02-01T13:17:12;15.40;28.20
62809;DHT22;48848;39.002;-94.584;2023-02-01T13:19:45;14.90;28.80
62809;DHT22;48848;39.002;-94.584;2023-02-01T13:22:23;14.30;29.90
62809;DHT22;48848;39.002;-94.584;2023-02-01T13:24:56;13.80;30.70
62809;DHT22;48848;39.002;-94.584;2023-02-01T13:27:22;13.40;31.40
62809;DHT22;48848;39.002;-94.584;2023-02-01T13:30:06;13.40;30.90
62809;DHT22;48848;39.002;-94.584;2023-02-01T13:43:01;15.20;28.20
62809;DHT22;48848;39.002;-94.584;2023-02-01T13:45:31;15.00;28.40
62809;DHT22;48848;39.002;-94.584;2023-02-01T13:47:59;14.50;29.30
62809;DHT22;48848;39.002;-94.584;2023-02-01T13:50:38;14.00;30.10
62809;DHT22;48848;39.002;-94.584;2023-02-01T13:55:38;13.10;31.20
62809;DHT22;48848;39.002;-94.584;2023-02-01T14:00:35;13.70;30.10
62809;DHT22;48848;39.002;-94.584;2023-02-01T14:23:47;13.20;31.40
62809;DHT22;48848;39.002;-94.584;2023-02-01T14:28:53;13.80;30.20
62809;DHT22;48848;39.002;-94.584;2023-02-01T14:31:31;14.40;29.50
62809;DHT22;48848;39.002;-94.584;2023-02-01T14:33:58;14.80;29.10
62809;DHT22;48848;39.002;-94.584;2023-02-01T14:36:24;15.10;28.60
62809;DHT22;48848;39.002;-94.584;2023-02-01T14:38:50;15.30;28.50
62809;DHT22;48848;39.002;-94.584;2023-02-01T14:41:23;15.20;28.50
62809;DHT22;48848;39.002;-94.584;2023-02-01T14:44:12;14.70;29.40
62809;DHT22;48848;39.002;-94.584;2023-02-01T14:49:21;13.70;31.10
62809;DHT22;48848;39.002;-94.584;2023-02-01T14:51:47;13.30;31.70
62809;DHT22;48848;39.002;-94.584;2023-02-01T14:54:13;13.40;31.40
62809;DHT22;48848;39.002;-94.584;2023-02-01T14:56:39;13.80;30.40
62809;DHT22;48848;39.002;-94.584;2023-02-01T14:59:15;14.30;29.70
62809;DHT22;48848;39.002;-94.584;2023-02-01T15:01:55;14.80;29.20
62809;DHT22;48848;39.002;-94.584;2023-02-01T15:04:24;15.10;28.80
62809;DHT22;48848;39.002;-94.584;2023-02-01T15:06:51;14.90;29.00
62809;DHT22;48848;39.002;-94.584;2023-02-01T15:09:29;14.40;30.00
62809;DHT22;48848;39.002;-94.584;2023-02-01T15:14:46;13.60;31.50
62809;DHT22;48848;39.002;-94.584;2023-02-01T15:17:22;13.30;32.30
62809;DHT22;48848;39.002;-94.584;2023-02-01T15:19:58;13.10;32.60
62809;DHT22;48848;39.002;-94.584;2023-02-01T15:22:25;13.00;32.50
62809;DHT22;48848;39.002;-94.584;2023-02-01T15:24:58;12.90;33.00
62809;DHT22;48848;39.002;-94.584;2023-02-01T15:27:24;12.80;33.00
62809;DHT22;48848;39.002;-94.584;2023-02-01T15:29:50;12.70;33.40
62809;DHT22;48848;39.002;-94.584;2023-02-01T15:32:29;12.70;33.40
62809;DHT22;48848;39.002;-94.584;2023-02-01T15:34:56;12.60;33.40
62809;DHT22;48848;39.002;-94.584;2023-02-01T15:37:22;12.60;33.50
62809;DHT22;48848;39.002;-94.584;2023-02-01T15:42:33;12.50;33.70
62809;DHT22;48848;39.002;-94.584;2023-02-01T15:44:59;12.40;33.90
62809;DHT22;48848;39.002;-94.584;2023-02-01T15:47:26;12.30;34.00
62809;DHT22;48848;39.002;-94.584;2023-02-01T15:49:53;12.30;33.90
62809;DHT22;48848;39.002;-94.584;2023-02-01T15:52:22;12.20;33.60
62809;DHT22;48848;39.002;-94.584;2023-02-01T15:54:53;12.20;34.10
62809;DHT22;48848;39.002;-94.584;2023-02-01T15:57:23;12.20;34.50
62809;DHT22;48848;39.002;-94.584;2023-02-01T15:59:56;12.40;33.50
62809;DHT22;48848;39.002;-94.584;2023-02-01T16:02:36;13.00;32.20
62809;DHT22;48848;39.002;-94.584;2023-02-01T16:05:05;13.70;31.00
62809;DHT22;48848;39.002;-94.584;2023-02-01T16:07:32;14.10;30.10
62809;DHT22;48848;39.002;-94.584;2023-02-01T16:09:59;13.90;30.50
62809;DHT22;48848;39.002;-94.584;2023-02-01T16:12:32;13.70;31.90
62809;DHT22;48848;39.002;-94.584;2023-02-01T16:15:04;13.30;32.10
62809;DHT22;48848;39.002;-94.584;2023-02-01T16:17:30;13.10;32.50
62809;DHT22;48848;39.002;-94.584;2023-02-01T16:19:56;12.90;33.10
62809;DHT22;48848;39.002;-94.584;2023-02-01T16:22:23;12.80;33.20
62809;DHT22;48848;39.002;-94.584;2023-02-01T16:24:49;12.70;33.90
62809;DHT22;48848;39.002;-94.584;2023-02-01T16:27:15;12.60;33.60
62809;DHT22;48848;39.002;-94.584;2023-02-01T16:29:41;12.60;33.60
62809;DHT22;48848;39.002;-94.584;2023-02-01T16:32:11;12.70;33.40
62809;DHT22;48848;39.002;-94.584;2023-02-01T16:34:39;13.10;32.30
62809;DHT22;48848;39.002;-94.584;2023-02-01T16:37:05;13.70;31.10
62809;DHT22;48848;39.002;-94.584;2023-02-01T16:39:35;14.30;30.40
62809;DHT22;48848;39.002;-94.584;2023-02-01T16:42:04;14.50;30.00
62809;DHT22;48848;39.002;-94.584;2023-02-01T16:44:30;14.20;30.20
62809;DHT22;48848;39.002;-94.584;2023-02-01T16:46:56;13.90;31.30
62809;DHT22;48848;39.002;-94.584;2023-02-01T16:49:22;13.60;31.50
62809;DHT22;48848;39.002;-94.584;2023-02-01T16:51:49;13.30;32.30
62809;DHT22;48848;39.002;-94.584;2023-02-01T16:54:18;13.10;33.10
62809;DHT22;48848;39.002;-94.584;2023-02-01T16:56:44;13.00;33.10
62809;DHT22;48848;39.002;-94.584;2023-02-01T16:59:10;12.90;32.80
62809;DHT22;48848;39.002;-94.584;2023-02-01T17:01:36;12.80;33.20
62809;DHT22;48848;39.002;-94.584;2023-02-01T17:04:03;12.80;33.80
62809;DHT22;48848;39.002;-94.584;2023-02-01T17:06:29;12.90;33.10
62809;DHT22;48848;39.002;-94.584;2023-02-01T17:08:56;13.50;32.50
62809;DHT22;48848;39.002;-94.584;2023-02-01T17:11:25;14.10;31.00
62809;DHT22;48848;39.002;-94.584;2023-02-01T17:13:51;14.70;30.20
62809;DHT22;48848;39.002;-94.584;2023-02-01T17:16:21;14.90;29.90
62809;DHT22;48848;39.002;-94.584;2023-02-01T17:18:57;14.60;30.10
62809;DHT22;48848;39.002;-94.584;2023-02-01T17:21:24;14.20;31.20
62809;DHT22;48848;39.002;-94.584;2023-02-01T17:23:51;13.90;31.30
62809;DHT22;48848;39.002;-94.584;2023-02-01T17:26:18;13.70;32.00